Time;durP1;ratioP1;P1;durP2;ratioP2;P2;SDS_P1;SDS_P2;PMS_P1;PMS_P2;Temp;Humidity;BMP_temperature;BMP_pressure;BME280_temperature;BME280_humidity;BME280_pressure;Samples;Min_cycle;Max_cycle;Signal;HPM_P1;HPM_P2
2021/07/09 00:04:31;;;;;;;1999.90;999.90;;;;;;;20.80;79.94;101451.47;15843988;28;20225;-59
2021/07/09 00:12:12;;;;;;;1999.90;999.90;;;;;;;20.83;79.95;101440.16;15814805;28;20063;-61
2021/07/09 00:19:45;;;;;;;1999.90;999.90;;;;;;;20.84;79.61;101433.31;15783102;28;20055;-60
2021/07/09 00:27:24;;;;;;;1999.90;999.90;;;;;;;20.72;80.71;101408.03;15826736;28;20104;-59
2021/07/09 00:34:57;;;;;;;1999.90;999.90;;;;;;;20.94;79.21;101417.59;15805471;28;20320;-59
2021/07/09 00:42:38;;;;;;;1999.90;999.90;;;;;;;20.73;80.69;101403.97;15814692;28;20055;-61
2021/07/09 00:50:34;;;;;;;1999.90;999.90;;;;;;;20.89;79.52;101412.28;15832807;28;20032;-59
2021/07/09 00:58:15;;;;;;;1999.90;999.90;;;;;;;21.00;79.29;101401.88;15861615;28;20084;-60
2021/07/09 01:05:49;;;;;;;1999.90;999.90;;;;;;;20.89;79.39;101398.09;15820161;28;20044;-60
2021/07/09 01:21:12;;;;;;;1999.90;999.90;;;;;;;20.74;80.41;101403.63;15822527;28;20078;-59
2021/07/09 01:28:48;;;;;;;1999.90;999.90;;;;;;;20.66;80.96;101384.06;15842474;28;20400;-58
2021/07/09 01:36:24;;;;;;;1999.90;999.90;;;;;;;20.86;79.70;101373.34;15816541;28;20119;-61
2021/07/09 01:44:05;;;;;;;1999.90;999.90;;;;;;;20.63;81.29;101374.28;15851470;28;20557;-60
2021/07/09 01:51:40;;;;;;;1999.90;999.90;;;;;;;20.81;80.27;101348.16;15817847;28;20051;-59
2021/07/09 01:59:23;;;;;;;1999.90;999.90;;;;;;;20.68;81.19;101356.13;15810698;28;20048;-58
2021/07/09 02:07:01;;;;;;;1999.90;999.90;;;;;;;20.77;80.10;101328.28;15816800;28;20053;-59
2021/07/09 02:14:38;;;;;;;1999.90;999.90;;;;;;;20.58;81.31;101323.59;15792236;28;20044;-59
2021/07/09 02:22:14;;;;;;;1999.90;999.90;;;;;;;20.58;81.48;101331.28;15811889;28;20043;-57
2021/07/09 02:29:56;;;;;;;1999.90;999.90;;;;;;;20.79;80.93;101325.88;15839989;28;20151;-57
2021/07/09 02:37:28;;;;;;;1999.90;999.90;;;;;;;20.68;80.40;101322.91;15819025;28;20460;-56
2021/07/09 02:45:09;;;;;;;1999.90;999.90;;;;;;;20.76;80.35;101306.81;15835221;28;20122;-56
2021/07/09 02:52:43;;;;;;;1999.90;999.90;;;;;;;20.60;80.79;101301.34;15819501;28;20356;-57
2021/07/09 03:00:19;;;;;;;1999.90;999.90;;;;;;;20.58;80.96;101305.78;15839659;28;20129;-58
2021/07/09 03:07:59;;;;;;;1999.90;999.90;;;;;;;20.66;80.73;101302.63;15839091;28;20075;-58
2021/07/09 03:15:40;;;;;;;1999.90;999.90;;;;;;;20.86;79.86;101293.94;15846094;28;20051;-59
2021/07/09 03:23:17;;;;;;;1999.90;999.90;;;;;;;20.88;80.53;101286.66;15857935;28;20136;-59
2021/07/09 03:30:56;;;;;;;1999.90;999.90;;;;;;;20.78;79.89;101278.06;15827567;28;20047;-59
2021/07/09 03:38:39;;;;;;;1999.90;999.90;;;;;;;20.78;80.19;101295.06;15841671;28;20066;-60
2021/07/09 03:46:17;;;;;;;1999.90;999.90;;;;;;;20.93;80.05;101285.47;15848685;28;20052;-59
2021/07/09 03:53:54;;;;;;;1999.90;999.90;;;;;;;20.79;80.94;101265.50;15830296;28;20039;-60
2021/07/09 04:01:44;;;;;;;1999.90;999.90;;;;;;;20.78;81.24;101283.72;15825037;28;20056;-59
2021/07/09 04:09:34;;;;;;;;;;;;;;;;;;;;;
2021/07/09 04:17:14;;;;;;;1999.90;999.90;;;;;;;20.56;83.32;101291.19;15835438;28;20047;-59
2021/07/09 04:32:52;;;;;;;1999.90;999.90;;;;;;;20.69;82.78;101267.81;15820820;28;20044;-60
2021/07/09 04:40:39;;;;;;;;;;;;;;;;;;;;;
2021/07/09 04:48:18;;;;;;;1999.90;999.90;;;;;;;20.42;84.97;101254.94;15793639;28;20048;-61
2021/07/09 04:55:56;;;;;;;1999.90;999.90;;;;;;;20.40;84.72;101235.47;15815600;22;20048;-62
2021/07/09 05:03:33;;;;;;;1999.90;999.90;;;;;;;20.11;86.87;101227.84;15849806;28;20121;-63
2021/07/09 05:11:07;;;;;;;1999.90;999.90;;;;;;;20.22;86.25;101220.31;15865745;28;20468;-61
2021/07/09 05:18:49;;;;;;;1999.90;999.90;;;;;;;20.13;87.56;101185.78;15867339;27;20074;-61
2021/07/09 05:26:34;;;;;;;1999.90;999.90;;;;;;;20.18;87.77;101180.59;15890238;27;20407;-62
2021/07/09 05:34:15;;;;;;;1999.90;999.90;;;;;;;20.24;88.27;101158.41;15847205;28;20445;-61
2021/07/09 05:41:51;;;;;;;1999.90;999.90;;;;;;;20.46;86.50;101162.28;15846448;28;20040;-60
2021/07/09 05:49:33;;;;;;;1999.90;999.90;;;;;;;20.55;86.48;101165.63;15851018;28;20097;-62
2021/07/09 05:57:22;;;;;;;1999.90;999.90;;;;;;;20.59;86.24;101179.81;15865386;28;20131;-63
2021/07/09 06:05:02;;;;;;;1999.90;999.90;;;;;;;20.63;85.91;101180.66;15864497;28;20122;-63
2021/07/09 06:12:42;;;;;;;1999.90;999.90;;;;;;;20.40;87.76;101187.28;15865172;28;20048;-63
2021/07/09 06:36:37;;;;;;;1999.90;999.90;;;;;;;20.60;88.69;101187.13;15875242;28;20119;-63
2021/07/09 06:44:12;;;;;;;1999.90;999.90;;;;;;;20.55;88.51;101187.50;15875278;28;20427;-63
2021/07/09 06:51:46;;;;;;;1999.90;999.90;;;;;;;20.47;89.55;101183.75;15873430;28;20100;-63
2021/07/09 06:59:44;;;;;;;1999.90;999.90;;;;;;;20.57;89.45;101176.56;15874478;28;20044;-61
2021/07/09 07:07:35;;;;;;;1999.90;999.90;;;;;;;20.57;90.00;101170.91;15874047;28;20051;-62
2021/07/09 07:15:09;;;;;;;1999.90;999.90;;;;;;;20.63;89.75;101167.31;15873621;28;20113;-62
2021/07/09 07:22:47;;;;;;;1999.90;999.90;;;;;;;20.86;88.87;101175.63;15873160;27;20127;-63
2021/07/09 07:30:24;;;;;;;1999.90;999.90;;;;;;;20.84;88.78;101152.53;15873248;28;20529;-62
2021/07/09 07:37:58;;;;;;;1999.90;999.90;;;;;;;20.90;89.47;101148.09;15870222;28;20048;-63
2021/07/09 07:45:41;;;;;;;1999.90;999.90;;;;;;;20.93;88.90;101144.47;15870460;28;20050;-63
2021/07/09 07:53:14;;;;;;;1999.90;999.90;;;;;;;20.91;88.86;101138.38;15871073;27;20043;-63
2021/07/09 08:00:47;;;;;;;1999.90;999.90;;;;;;;20.98;88.63;101138.44;15870347;28;20048;-65
2021/07/09 08:08:23;;;;;;;1999.90;999.90;;;;;;;21.04;88.32;101136.84;15868063;28;20048;-64
2021/07/09 08:16:09;;;;;;;1999.90;999.90;;;;;;;21.06;87.81;101138.50;15869382;28;20043;-63
2021/07/09 08:23:54;;;;;;;1999.90;999.90;;;;;;;21.11;87.48;101136.09;15868161;28;20040;-63
2021/07/09 08:32:03;;;;;;;1999.90;999.90;;;;;;;21.15;86.38;101147.47;15869749;28;20040;-62
2021/07/09 08:39:40;;;;;;;1999.90;999.90;;;;;;;21.16;86.42;101144.25;15869030;28;20051;-63
2021/07/09 08:47:12;;;;;;;1999.90;999.90;;;;;;;21.23;86.57;101149.13;15866744;28;20043;-63
2021/07/09 08:54:50;;;;;;;1999.90;999.90;;;;;;;21.37;86.82;101142.78;15868031;28;20457;-62
2021/07/09 09:02:29;;;;;;;1999.90;999.90;;;;;;;21.39;86.17;101135.50;15867130;28;20305;-61
2021/07/09 09:10:02;;;;;;;1999.90;999.90;;;;;;;21.40;84.44;101127.78;15867439;28;20086;-62
2021/07/09 09:17:37;;;;;;;1999.90;999.90;;;;;;;21.53;84.82;101134.75;15866556;28;20079;-63
2021/07/09 09:25:13;;;;;;;1999.90;999.90;;;;;;;21.68;85.20;101139.28;15866570;28;20557;-62
2021/07/09 09:32:51;;;;;;;1999.90;999.90;;;;;;;21.75;84.00;101130.78;15865347;28;20134;-63
2021/07/09 09:40:29;;;;;;;1999.90;999.90;;;;;;;21.60;84.07;101131.94;15866052;28;20070;-63
2021/07/09 09:48:06;;;;;;;1999.90;999.90;;;;;;;21.52;84.94;101135.97;15864949;28;20040;-63
2021/07/09 09:55:41;;;;;;;1999.90;999.90;;;;;;;21.27;85.91;101128.13;15866366;28;20393;-64
2021/07/09 10:03:14;;;;;;;1999.90;999.90;;;;;;;21.58;85.67;101129.50;15872896;28;20036;-63
2021/07/09 10:10:51;;;;;;;1999.90;999.90;;;;;;;21.85;85.11;101121.50;15877207;27;20484;-63
2021/07/09 10:18:34;;;;;;;1999.90;999.90;;;;;;;21.84;85.41;101111.34;15877250;28;20627;-63
2021/07/09 10:26:11;;;;;;;1999.90;999.90;;;;;;;22.05;84.27;101113.44;15876722;28;20159;-63
2021/07/09 10:33:47;;;;;;;1999.90;999.90;;;;;;;22.22;82.47;101108.25;15876931;28;20040;-63
2021/07/09 10:41:25;;;;;;;1999.90;999.90;;;;;;;22.27;82.09;101099.28;15875472;28;20043;-63
2021/07/09 10:49:03;;;;;;;1999.90;999.90;;;;;;;22.27;81.97;101108.63;15874056;28;20036;-62
2021/07/09 10:56:36;;;;;;;1999.90;999.90;;;;;;;22.14;82.42;101101.72;15874351;28;20130;-62
2021/07/09 11:04:15;;;;;;;1999.90;999.90;;;;;;;22.10;83.48;101092.38;15872184;28;20043;-61
2021/07/09 11:12:09;;;;;;;1999.90;999.90;;;;;;;21.81;85.64;101089.44;15871775;28;20071;-63
2021/07/09 11:19:49;;;;;;;1999.90;999.90;;;;;;;22.21;84.86;101086.72;15871945;28;20051;-62
2021/07/09 11:27:50;;;;;;;1999.90;999.90;;;;;;;22.50;84.01;101093.22;15871564;28;20071;-62
2021/07/09 11:35:28;;;;;;;1999.90;999.90;;;;;;;22.21;84.33;101096.06;15871023;28;20039;-62
2021/07/09 11:43:04;;;;;;;1999.90;999.90;;;;;;;22.42;83.77;101081.06;15871746;27;20035;-63
2021/07/09 11:50:39;;;;;;;1999.90;999.90;;;;;;;22.84;82.36;101068.06;15871508;28;20035;-62
2021/07/09 11:58:23;;;;;;;1999.90;999.90;;;;;;;22.63;84.11;101069.66;15871050;27;20051;-62
2021/07/09 12:05:59;;;;;;;1999.90;999.90;;;;;;;22.70;82.92;101066.81;15871572;28;20579;-63
2021/07/09 12:13:43;;;;;;;1999.90;999.90;;;;;;;22.81;83.75;101066.78;15870091;28;20052;-63
2021/07/09 12:21:19;;;;;;;1999.90;999.90;;;;;;;22.98;83.29;101059.50;15869367;28;20047;-63
2021/07/09 12:28:59;;;;;;;1999.90;999.90;;;;;;;23.13;82.38;101072.44;15870112;28;20051;-63
2021/07/09 12:36:35;;;;;;;1999.90;999.90;;;;;;;23.18;80.46;101059.84;15868435;28;20054;-63
2021/07/09 12:44:21;;;;;;;1999.90;999.90;;;;;;;22.96;81.58;101057.06;15825674;28;20043;-62
2021/07/09 12:52:05;;;;;;;1999.90;999.90;;;;;;;23.20;81.19;101041.13;15867726;28;20143;-62
2021/07/09 12:59:46;;;;;;;1999.90;999.90;;;;;;;23.08;81.52;101047.25;15850564;28;20043;-63
2021/07/09 13:07:23;;;;;;;1999.90;999.90;;;;;;;23.41;81.03;101020.28;15863300;28;20043;-62
2021/07/09 13:15:01;;;;;;;1999.90;999.90;;;;;;;25.02;75.08;101015.03;15848414;28;20046;-63
2021/07/09 13:22:36;;;;;;;1999.90;999.90;;;;;;;24.34;76.71;101029.13;15848319;28;20506;-63
2021/07/09 13:30:14;;;;;;;1999.90;999.90;;;;;;;23.98;77.00;101014.31;15848523;28;20035;-63
2021/07/09 13:37:48;;;;;;;1999.90;999.90;;;;;;;23.79;77.75;100994.91;15865972;28;20136;-63
2021/07/09 13:45:33;;;;;;;1999.90;999.90;;;;;;;23.69;78.35;101010.03;15865191;28;20248;-62
2021/07/09 13:53:25;;;;;;;1999.90;999.90;;;;;;;23.67;78.38;101001.91;15860792;28;20492;-65
2021/07/09 14:01:05;;;;;;;1999.90;999.90;;;;;;;23.79;78.57;100977.81;15829464;28;20044;-63
2021/07/09 14:08:41;;;;;;;1999.90;999.90;;;;;;;23.57;79.69;100965.72;15864882;28;20047;-63
2021/07/09 14:16:19;;;;;;;1999.90;999.90;;;;;;;23.32;80.48;100960.13;15845787;28;20036;-63
2021/07/09 14:23:56;;;;;;;1999.90;999.90;;;;;;;23.12;80.38;100967.56;15864961;28;20138;-60
2021/07/09 14:31:33;;;;;;;1999.90;999.90;;;;;;;22.66;81.79;100968.50;15864969;28;20527;-60
2021/07/09 14:47:28;;;;;;;1999.90;999.90;;;;;;;21.76;83.96;100970.50;15826778;28;20397;-62
2021/07/09 14:55:07;;;;;;;1999.90;999.90;;;;;;;21.66;83.67;100964.81;15874922;28;20035;-62
2021/07/09 15:02:45;;;;;;;1999.90;999.90;;;;;;;21.63;83.21;100979.84;15875886;28;20047;-62
2021/07/09 15:10:34;;;;;;;1999.90;999.90;;;;;;;21.08;84.02;100980.03;15874326;28;20480;-62
2021/07/09 15:18:48;;;;;;;1999.90;999.90;;;;;;;21.24;81.55;100998.31;15912265;27;20066;-62
2021/07/09 15:26:33;;;;;;;1999.90;999.90;;;;;;;20.81;81.94;101005.81;15834843;28;20050;-61
2021/07/09 15:34:08;;;;;;;1999.90;999.90;;;;;;;20.27;84.50;101003.78;15872277;28;20058;-63
2021/07/09 15:41:40;;;;;;;1999.90;999.90;;;;;;;20.59;82.31;101018.22;15872667;28;20043;-62
2021/07/09 15:49:18;;;;;;;1999.90;999.90;;;;;;;20.16;83.88;101041.34;15869890;27;20045;-61
2021/07/09 15:56:57;;;;;;;1999.90;999.90;;;;;;;20.14;84.86;101038.09;15863742;28;20308;-61
2021/07/09 16:04:33;;;;;;;1999.90;999.90;;;;;;;20.01;84.95;101014.09;15869982;28;20070;-61
2021/07/09 16:12:12;;;;;;;1999.90;999.90;;;;;;;20.12;85.17;101025.53;15852053;28;20044;-61
2021/07/09 16:20:23;;;;;;;1999.90;999.90;;;;;;;20.10;82.68;101030.75;15865771;28;20047;-62
2021/07/09 16:28:00;;;;;;;1999.90;999.90;;;;;;;19.52;84.70;101017.19;15873307;27;20420;-62
2021/07/09 16:35:35;;;;;;;1999.90;999.90;;;;;;;19.66;82.63;100997.56;15839455;28;20146;-61
2021/07/09 16:43:10;;;;;;;1999.90;999.90;;;;;;;19.25;84.26;101025.75;15868498;28;20054;-62
2021/07/09 16:50:59;;;;;;;1999.90;999.90;;;;;;;19.22;83.87;101001.06;15867782;28;20054;-63
2021/07/09 16:58:41;;;;;;;1999.90;999.90;;;;;;;18.96;84.16;101020.91;15863002;28;20048;-64
2021/07/09 17:06:22;;;;;;;1999.90;999.90;;;;;;;18.84;84.37;101043.75;15867121;28;20074;-62
2021/07/09 17:13:57;;;;;;;1999.90;999.90;;;;;;;18.83;84.78;101030.81;15847675;28;20046;-59
2021/07/09 17:21:40;;;;;;;1999.90;999.90;;;;;;;18.92;83.35;101043.47;15866432;28;20047;-64
2021/07/09 17:29:21;;;;;;;1999.90;999.90;;;;;;;18.84;84.06;101030.44;15865715;28;20052;-64
2021/07/09 17:36:59;;;;;;;1999.90;999.90;;;;;;;18.96;83.16;101029.38;15866050;28;20100;-64
2021/07/09 17:44:31;;;;;;;1999.90;999.90;;;;;;;19.03;82.51;101038.78;15866025;28;20085;-62
2021/07/09 17:52:29;;;;;;;1999.90;999.90;;;;;;;19.02;82.58;101053.31;15866771;28;20039;-61
2021/07/09 18:00:10;;;;;;;1999.90;999.90;;;;;;;18.96;82.94;101052.81;15823286;28;20039;-63
2021/07/09 18:07:56;;;;;;;1999.90;999.90;;;;;;;18.92;83.02;101060.44;15865364;28;20054;-62
2021/07/09 18:15:35;;;;;;;1999.90;999.90;;;;;;;18.77;82.90;101066.28;15864988;28;20039;-60
2021/07/09 18:23:13;;;;;;;1999.90;999.90;;;;;;;18.53;83.55;101061.81;15871703;28;20044;-63
2021/07/09 18:31:09;;;;;;;;;;;;;;;;;;;;;
2021/07/09 18:39:12;;;;;;;1999.90;999.90;;;;;;;18.15;83.67;101070.09;15910916;27;20420;-62
2021/07/09 18:46:53;;;;;;;1999.90;999.90;;;;;;;18.24;82.79;101077.50;15841101;28;20040;-63
2021/07/09 18:54:26;;;;;;;1999.90;999.90;;;;;;;18.22;82.97;101082.69;15880219;28;20044;-63
2021/07/09 19:02:01;;;;;;;1999.90;999.90;;;;;;;18.16;83.41;101090.66;15874114;28;20048;-65
2021/07/09 19:09:57;;;;;;;1999.90;999.90;;;;;;;18.09;83.39;101107.47;15870471;27;20044;-62
2021/07/09 19:17:40;;;;;;;1999.90;999.90;;;;;;;18.03;83.64;101120.25;15838859;28;20043;-62
2021/07/09 19:25:28;;;;;;;1999.90;999.90;;;;;;;18.13;83.80;101122.47;15873512;28;20397;-62
2021/07/09 19:33:06;;;;;;;1999.90;999.90;;;;;;;18.24;82.60;101122.69;15871965;27;20040;-61
2021/07/09 19:40:40;;;;;;;1999.90;999.90;;;;;;;18.23;83.31;101121.84;15854419;28;20100;-62
2021/07/09 19:48:12;;;;;;;1999.90;999.90;;;;;;;18.29;83.19;101122.38;15853886;28;20515;-63
2021/07/09 19:55:46;;;;;;;1999.90;999.90;;;;;;;18.25;84.12;101127.16;15872316;28;20127;-63
2021/07/09 20:03:18;;;;;;;1999.90;999.90;;;;;;;18.30;84.06;101136.09;15872286;28;20078;-63
2021/07/09 20:10:52;;;;;;;1999.90;999.90;;;;;;;18.32;84.87;101135.72;15852510;28;20105;-63
2021/07/09 20:18:24;;;;;;;1999.90;999.90;;;;;;;18.24;85.81;101131.97;15869951;28;20055;-64
2021/07/09 20:25:57;;;;;;;1999.90;999.90;;;;;;;18.37;85.55;101132.59;15852306;28;20043;-63
2021/07/09 20:33:30;;;;;;;1999.90;999.90;;;;;;;18.04;86.81;101138.84;15869177;28;20044;-62
2021/07/09 20:41:04;;;;;;;1999.90;999.90;;;;;;;18.05;86.31;101143.31;15852056;28;20488;-60
2021/07/09 20:48:36;;;;;;;1999.90;999.90;;;;;;;18.02;86.16;101150.50;15867739;28;20059;-60
2021/07/09 20:56:10;;;;;;;1999.90;999.90;;;;;;;17.72;87.09;101139.03;15867394;28;20040;-60
2021/07/09 21:03:42;;;;;;;1999.90;999.90;;;;;;;17.63;86.64;101143.22;15867296;28;20043;-61
2021/07/09 21:11:16;;;;;;;1999.90;999.90;;;;;;;17.55;87.66;101145.88;15866708;28;20073;-60
2021/07/09 21:18:48;;;;;;;1999.90;999.90;;;;;;;17.68;87.22;101142.91;15866819;28;20042;-62
2021/07/09 21:26:22;;;;;;;1999.90;999.90;;;;;;;17.56;87.49;101146.69;15867449;28;20044;-62
2021/07/09 21:33:54;;;;;;;1999.90;999.90;;;;;;;17.21;89.30;101150.38;15865314;28;20044;-62
2021/07/09 21:41:28;;;;;;;1999.90;999.90;;;;;;;17.23;88.93;101161.28;15867617;28;20075;-62
2021/07/09 21:49:00;;;;;;;1999.90;999.90;;;;;;;17.28;88.32;101158.97;15864368;28;20105;-63
2021/07/09 21:56:34;;;;;;;1999.90;999.90;;;;;;;17.14;87.61;101163.47;15831977;28;20050;-63
2021/07/09 22:04:07;;;;;;;1999.90;999.90;;;;;;;17.16;88.41;101172.38;15860929;28;20086;-60
2021/07/09 22:11:40;;;;;;;1999.90;999.90;;;;;;;17.22;88.28;101177.38;15879268;28;20043;-61
2021/07/09 22:19:12;;;;;;;1999.90;999.90;;;;;;;16.92;88.86;101190.34;15834238;28;20068;-61
2021/07/09 22:26:46;;;;;;;1999.90;999.90;;;;;;;17.11;88.87;101176.31;15876712;28;20059;-62
2021/07/09 22:34:18;;;;;;;1999.90;999.90;;;;;;;16.91;89.57;101180.25;15858263;28;20040;-63
2021/07/09 22:41:52;;;;;;;1999.90;999.90;;;;;;;16.93;89.71;101192.78;15857282;28;20036;-62
2021/07/09 22:49:24;;;;;;;1999.90;999.90;;;;;;;16.91;89.54;101195.16;15875656;28;20090;-61
2021/07/09 22:56:58;;;;;;;1999.90;999.90;;;;;;;16.71;90.44;101182.97;15873816;28;20136;-61
2021/07/09 23:04:30;;;;;;;1999.90;999.90;;;;;;;16.83;89.67;101198.97;15873145;28;20042;-61
2021/07/09 23:12:05;;;;;;;1999.90;999.90;;;;;;;16.64;90.43;101198.84;15869469;28;20084;-63
2021/07/09 23:19:37;;;;;;;1999.90;999.90;;;;;;;16.74;89.67;101203.97;15870579;28;20282;-63
2021/07/09 23:27:10;;;;;;;1999.90;999.90;;;;;;;16.78;90.11;101201.22;15873089;28;20032;-63
2021/07/09 23:34:42;;;;;;;1999.90;999.90;;;;;;;16.60;90.17;101209.22;15854462;28;20036;-64
2021/07/09 23:42:16;;;;;;;1999.90;999.90;;;;;;;16.52;90.55;101207.38;15851238;28;20120;-63
2021/07/09 23:49:48;;;;;;;;;;;;;;;16.61;89.84;101217.31;15871838;28;20050;-62
2021/07/09 23:57:23;;;;;;;1999.90;999.90;;;;;;;16.43;91.13;101208.38;15871246;28;19942;-62
